createdAt,value
2016-11-04T00:00:07.417Z,96.75
2016-11-04T00:01:18.223Z,96.85
2016-11-04T00:02:28.851Z,97.42
2016-11-04T00:03:53.979Z,96.85
2016-11-04T00:05:04.601Z,96.66
2016-11-04T00:06:15.256Z,97.42
2016-11-04T00:07:25.984Z,96.94
2016-11-04T00:08:36.606Z,96.66
2016-11-04T00:09:47.632Z,96.08
2016-11-04T00:10:58.287Z,96.27
2016-11-04T00:12:09.147Z,95.98
2016-11-04T00:13:19.956Z,95.84
2016-11-04T00:14:30.981Z,95.7
2016-11-04T00:15:41.641Z,95.7
2016-11-04T00:17:06.789Z,96.56
2016-11-04T00:18:32.296Z,96.37
2016-11-04T00:19:43.220Z,96.18
2016-11-04T00:20:53.761Z,95.98
2016-11-04T00:22:04.256Z,96.27
2016-11-04T00:23:14.662Z,96.18
2016-11-04T00:24:25.069Z,95.98
2016-11-04T00:25:35.476Z,95.94
2016-11-04T00:27:15.223Z,95.89
2016-11-04T00:28:26.229Z,96.66
2016-11-04T00:29:36.636Z,96.32
2016-11-04T00:30:47.048Z,96.47
2016-11-04T00:31:57.454Z,95.55
2016-11-04T00:33:07.860Z,95.41
2016-11-04T00:34:18.268Z,95.41
2016-11-04T00:35:28.902Z,95.26
2016-11-04T00:36:39.512Z,95.55
2016-11-04T00:37:50.600Z,95.75
2016-11-04T00:39:01.808Z,95.94
2016-11-04T00:40:12.215Z,95.65
2016-11-04T00:41:22.623Z,96.13
2016-11-04T00:42:33.431Z,95.26
2016-11-04T00:43:44.234Z,95.79
2016-11-04T00:45:09.392Z,95.21
2016-11-04T00:46:19.804Z,95.94
2016-11-04T00:47:30.216Z,96.47
2016-11-04T00:48:41.117Z,95.98
2016-11-04T00:49:51.728Z,96.47
2016-11-04T00:51:02.141Z,96.47
2016-11-04T00:52:12.933Z,96.89
2016-11-04T00:53:23.746Z,97.52
2016-11-04T00:54:34.558Z,97.14
2016-11-04T00:55:45.168Z,97.24
2016-11-04T00:56:55.695Z,97.14
2016-11-04T00:58:06.651Z,97.42
2016-11-04T00:59:17.184Z,96.94
2016-11-04T01:00:28.295Z,97.28
2016-11-04T01:01:39.172Z,97.04
2016-11-04T01:02:49.902Z,97.04
2016-11-04T01:04:00.620Z,96.56
2016-11-04T01:05:25.672Z,96.85
2016-11-04T01:06:50.933Z,96.56
2016-11-04T01:08:01.653Z,97.47
2016-11-04T01:09:12.179Z,97.09
2016-11-04T01:10:22.895Z,97.28
2016-11-04T01:11:33.428Z,97.19
2016-11-04T01:12:44.347Z,97.09
2016-11-04T01:13:55.372Z,96.42
2016-11-04T01:15:05.902Z,96.7
2016-11-04T01:16:16.432Z,96.7
2016-11-04T01:17:27.356Z,96.03
2016-11-04T01:18:38.288Z,96.03
2016-11-04T01:19:49.021Z,96.22
2016-11-04T01:20:59.573Z,96.51
2016-11-04T01:22:10.486Z,96.99
2016-11-04T01:23:21.408Z,97.14
2016-11-04T01:24:32.477Z,97.24
2016-11-04T01:25:43.008Z,97.24
2016-11-04T01:26:53.547Z,97.61
2016-11-04T01:28:04.111Z,97.04
2016-11-04T01:29:29.562Z,97.61
2016-11-04T01:30:41.485Z,97.04
2016-11-04T01:31:52.025Z,97.04
2016-11-04T01:33:17.317Z,97.28
2016-11-04T01:34:28.031Z,97.71
2016-11-04T01:35:38.764Z,97.19
2016-11-04T01:36:49.296Z,96.89
2016-11-04T01:38:00.011Z,96.99
2016-11-04T01:39:10.587Z,97.24
2016-11-04T01:40:35.824Z,98.1
2016-11-04T01:41:46.555Z,98.38
2016-11-04T01:42:57.275Z,98.38
2016-11-04T01:44:07.807Z,98.58
2016-11-04T01:45:18.734Z,98.1
2016-11-04T01:46:43.794Z,98.1
2016-11-04T01:47:54.372Z,98.29
2016-11-04T01:49:05.497Z,97.81
2016-11-04T01:50:16.120Z,97.42
2016-11-04T01:51:27.145Z,97.24
2016-11-04T01:52:37.798Z,97.52
2016-11-04T01:53:48.417Z,97.91
2016-11-04T01:54:59.036Z,97.24
2016-11-04T01:56:10.163Z,97.52
2016-11-04T01:57:20.980Z,97.14
2016-11-04T01:58:31.635Z,97.14
2016-11-04T01:59:42.254Z,97.24
2016-11-04T02:01:07.386Z,97.52
2016-11-04T02:02:18.008Z,97.24
2016-11-04T02:03:29.433Z,97.61
2016-11-04T02:04:40.057Z,96.85
2016-11-04T02:05:50.675Z,96.85
2016-11-04T02:07:01.340Z,96.85
2016-11-04T02:08:12.167Z,96.61
2016-11-04T02:09:22.819Z,96.99
2016-11-04T02:10:33.444Z,96.66
2016-11-04T02:11:44.467Z,96.7
2016-11-04T02:12:55.462Z,95.94
2016-11-04T02:14:06.938Z,96.13
2016-11-04T02:15:17.562Z,95.45
2016-11-04T02:16:28.180Z,95.94
2016-11-04T02:17:38.800Z,95.31
2016-11-04T02:18:49.823Z,95.36
2016-11-04T02:20:00.642Z,95.65
2016-11-04T02:21:11.781Z,95.65
2016-11-04T02:22:22.415Z,95.55
2016-11-04T02:23:33.042Z,95.36
2016-11-04T02:24:43.696Z,95.75
2016-11-04T02:25:54.519Z,95.75
2016-11-04T02:27:05.141Z,95.55
2016-11-04T02:28:15.763Z,95.65
2016-11-04T02:29:26.390Z,95.45
2016-11-04T02:30:37.020Z,95.55
2016-11-04T02:31:47.877Z,95.55
2016-11-04T02:32:58.470Z,95.55
2016-11-04T02:34:10.413Z,95.36
2016-11-04T02:35:21.145Z,95.75
2016-11-04T02:36:31.677Z,94.78
2016-11-04T02:37:42.410Z,94.98
2016-11-04T02:38:52.941Z,95.45
2016-11-04T02:40:03.663Z,95.45
2016-11-04T02:41:14.193Z,95.75
2016-11-04T02:42:24.722Z,95.94
2016-11-04T02:43:35.362Z,96.7
2016-11-04T02:44:45.895Z,95.94
2016-11-04T02:45:56.930Z,95.98
2016-11-04T02:47:07.462Z,96.08
2016-11-04T02:48:18.176Z,96.66
2016-11-04T02:49:28.803Z,96.61
2016-11-04T02:50:39.337Z,96.13
2016-11-04T02:51:49.870Z,95.84
2016-11-04T02:53:00.617Z,96.08
2016-11-04T02:54:11.150Z,96.03
2016-11-04T02:55:36.313Z,96.18
2016-11-04T02:56:46.848Z,96.08
2016-11-04T02:57:57.380Z,96.27
2016-11-04T02:59:08.097Z,95.84
2016-11-04T03:00:18.637Z,95.5
2016-11-04T03:01:29.765Z,95.17
2016-11-04T03:02:40.300Z,95.65
2016-11-04T03:03:50.841Z,96.32
2016-11-04T03:05:01.882Z,96.61
2016-11-04T03:06:12.598Z,96.13
2016-11-04T03:07:23.330Z,96.27
2016-11-04T03:08:33.864Z,96.22
2016-11-04T03:09:44.360Z,95.94
2016-11-04T03:10:54.806Z,95.55
2016-11-04T03:12:20.249Z,95.45
2016-11-04T03:13:30.764Z,94.78
2016-11-04T03:14:41.690Z,95.65
2016-11-04T03:15:52.102Z,95.75
2016-11-04T03:17:02.512Z,94.69
2016-11-04T03:18:13.123Z,95.17
2016-11-04T03:19:23.535Z,95.17
2016-11-04T03:20:33.945Z,94.98
2016-11-04T03:21:44.358Z,94.88
2016-11-04T03:22:55.496Z,94.78
2016-11-04T03:24:06.011Z,94.88
2016-11-04T03:25:17.300Z,94.88
2016-11-04T03:26:27.711Z,95.17
2016-11-04T03:27:38.156Z,95.17
2016-11-04T03:28:48.565Z,94.98
2016-11-04T03:29:59.598Z,94.4
2016-11-04T03:31:10.699Z,94.31
2016-11-04T03:32:21.108Z,94.59
2016-11-04T03:33:31.520Z,94.4
2016-11-04T03:34:42.376Z,94.88
2016-11-04T03:35:52.985Z,94.98
2016-11-04T03:38:28.358Z,95.07
2016-11-04T03:39:38.775Z,94.21
2016-11-04T03:40:49.223Z,94.69
2016-11-04T03:42:14.379Z,94.59
2016-11-04T03:43:25.274Z,94.69
2016-11-04T03:44:35.683Z,94.01
2016-11-04T03:45:46.530Z,94.21
2016-11-04T03:46:56.947Z,93.92
2016-11-04T03:48:07.356Z,94.21
2016-11-04T03:49:17.801Z,94.11
2016-11-04T03:50:28.245Z,94.31
2016-11-04T03:51:38.857Z,93.92
2016-11-04T03:52:49.271Z,93.92
2016-11-04T03:54:00.563Z,93.92
2016-11-04T03:55:10.961Z,94.01
2016-11-04T03:56:35.919Z,93.63
2016-11-04T03:57:46.326Z,93.92
2016-11-04T03:58:57.699Z,93.44
2016-11-04T04:00:08.102Z,93.54
2016-11-04T04:01:18.507Z,93.25
2016-11-04T04:02:29.016Z,94.21
2016-11-04T04:03:39.428Z,94.11
2016-11-04T04:04:50.268Z,93.63
2016-11-04T04:06:00.716Z,93.73
2016-11-04T04:07:11.124Z,93.73
2016-11-04T04:08:21.731Z,93.05
2016-11-04T04:09:32.141Z,93.34
2016-11-04T04:10:42.551Z,93.15
2016-11-04T04:11:53.154Z,93.54
2016-11-04T04:13:03.603Z,94.11
2016-11-04T04:14:14.013Z,94.11
2016-11-04T04:15:24.450Z,94.31
2016-11-04T04:16:35.103Z,93.82
2016-11-04T04:17:45.992Z,94.01
2016-11-04T04:18:56.637Z,94.01
2016-11-04T04:20:07.235Z,94.01
2016-11-04T04:21:17.649Z,94.11
2016-11-04T04:22:29.138Z,94.01
2016-11-04T04:23:39.942Z,94.4
2016-11-04T04:24:50.347Z,94.93
2016-11-04T04:26:00.756Z,94.83
2016-11-04T04:27:11.402Z,95.03
2016-11-04T04:28:21.829Z,94.83
2016-11-04T04:29:32.235Z,95.17
2016-11-04T04:30:42.696Z,94.69
2016-11-04T04:31:53.093Z,94.88
2016-11-04T04:34:28.443Z,93.92
2016-11-04T04:35:38.841Z,94.31
2016-11-04T04:36:49.445Z,94.31
2016-11-04T04:37:59.854Z,94.11
2016-11-04T04:39:10.283Z,94.4
2016-11-04T04:40:20.886Z,94.31
2016-11-04T04:41:31.319Z,94.21
2016-11-04T04:42:41.931Z,94.4
2016-11-04T04:44:06.884Z,93.92
2016-11-04T04:45:17.688Z,95.17
2016-11-04T04:46:43.060Z,94.31
2016-11-04T04:47:53.600Z,94.49
2016-11-04T04:49:04.088Z,94.21
2016-11-04T04:50:14.615Z,94.49
2016-11-04T04:51:25.226Z,94.21
2016-11-04T04:52:50.745Z,94.59
2016-11-04T04:54:01.358Z,94.69
2016-11-04T04:55:11.969Z,94.01
2016-11-04T04:56:37.269Z,93.82
2016-11-04T04:57:47.878Z,93.92
2016-11-04T04:58:58.689Z,94.11
2016-11-04T05:00:09.292Z,94.11
2016-11-04T05:01:20.400Z,93.92
2016-11-04T05:02:31.006Z,94.21
2016-11-04T05:03:56.104Z,94.01
2016-11-04T05:05:06.705Z,94.01
2016-11-04T05:06:17.517Z,93.15
2016-11-04T05:07:28.122Z,93.73
2016-11-04T05:08:38.736Z,94.01
2016-11-04T05:09:49.546Z,93.92
2016-11-04T05:11:00.143Z,94.01
2016-11-04T05:12:10.755Z,94.21
2016-11-04T05:13:21.353Z,94.21
2016-11-04T05:14:32.139Z,94.49
2016-11-04T05:15:57.245Z,94.59
2016-11-04T05:17:07.854Z,95.07
2016-11-04T05:18:18.830Z,94.88
2016-11-04T05:19:29.431Z,94.98
2016-11-04T05:20:40.124Z,95.07
2016-11-04T05:21:50.728Z,94.69
2016-11-04T05:23:01.317Z,95.07
2016-11-04T05:24:11.883Z,94.78
2016-11-04T05:25:22.558Z,94.64
2016-11-04T05:26:33.027Z,95.07
2016-11-04T05:27:43.897Z,94.35
2016-11-04T05:28:54.359Z,94.35
2016-11-04T05:30:04.831Z,94.35
2016-11-04T05:31:15.409Z,94.45
2016-11-04T05:32:25.874Z,94.64
2016-11-04T05:33:36.311Z,94.45
2016-11-04T05:34:47.174Z,94.45
2016-11-04T05:35:57.555Z,94.4
2016-11-04T05:37:07.938Z,94.35
2016-11-04T05:38:18.702Z,94.4
2016-11-04T05:39:29.087Z,94.4
2016-11-04T05:40:39.467Z,94.49
2016-11-04T05:41:49.851Z,94.4
2016-11-04T05:43:00.314Z,95.36
2016-11-04T05:44:10.688Z,94.98
2016-11-04T05:45:21.057Z,94.78
2016-11-04T05:46:31.425Z,94.98
2016-11-04T05:47:41.800Z,95.41
2016-11-04T05:48:52.361Z,94.93
2016-11-04T05:50:02.735Z,95.26
2016-11-04T05:51:13.114Z,95.65
2016-11-04T05:52:23.512Z,95.45
2016-11-04T05:53:33.886Z,95.45
2016-11-04T05:54:44.482Z,95.45
2016-11-04T05:55:54.872Z,95.7
2016-11-04T05:57:05.275Z,95.55
2016-11-04T05:58:15.654Z,95.65
2016-11-04T05:59:26.011Z,94.74
2016-11-04T06:00:36.406Z,94.64
2016-11-04T06:01:47.002Z,95.55
2016-11-04T06:03:11.921Z,95.36
2016-11-04T06:04:22.289Z,94.88
2016-11-04T06:05:32.683Z,94.98
2016-11-04T06:08:22.571Z,95.07
2016-11-04T06:09:32.933Z,95.17
2016-11-04T06:10:43.431Z,94.98
2016-11-04T06:11:53.798Z,95.26
2016-11-04T06:13:04.654Z,94.69
2016-11-04T06:14:15.045Z,94.69
2016-11-04T06:15:25.924Z,94.21
2016-11-04T06:16:36.478Z,94.59
2016-11-04T06:17:47.436Z,94.31
2016-11-04T06:18:57.909Z,93.92
2016-11-04T06:20:08.385Z,94.69
2016-11-04T06:21:18.837Z,94.59
2016-11-04T06:22:29.975Z,95.17
2016-11-04T06:23:40.421Z,94.49
2016-11-04T06:24:50.889Z,94.31
2016-11-04T06:26:15.896Z,94.49
2016-11-04T06:27:26.331Z,94.49
2016-11-04T06:28:37.296Z,94.4
2016-11-04T06:29:48.168Z,94.69
2016-11-04T06:31:13.164Z,94.88
2016-11-04T06:32:23.684Z,94.88
2016-11-04T06:33:34.455Z,94.88
2016-11-04T06:36:10.183Z,94.11
2016-11-04T06:37:20.767Z,94.31
2016-11-04T06:38:31.619Z,94.49
2016-11-04T06:39:42.608Z,94.31
2016-11-04T06:40:53.196Z,93.92
2016-11-04T06:42:18.499Z,93.82
2016-11-04T06:43:29.116Z,94.11
2016-11-04T06:44:39.898Z,93.73
2016-11-04T06:45:50.480Z,94.11
2016-11-04T06:47:01.046Z,93.92
2016-11-04T06:48:26.185Z,93.15
2016-11-04T06:49:36.859Z,93.25
2016-11-04T06:50:47.441Z,93.34
2016-11-04T06:51:58.008Z,93.34
2016-11-04T06:53:08.619Z,93.68
2016-11-04T06:54:19.376Z,93.19
2016-11-04T06:55:29.978Z,93.29
2016-11-04T06:56:40.554Z,93.25
2016-11-04T06:57:51.143Z,92.62
2016-11-04T06:59:01.752Z,93.01
2016-11-04T07:00:12.519Z,92.96
2016-11-04T07:01:23.104Z,92.33
2016-11-04T07:02:33.727Z,93.01
2016-11-04T07:03:44.321Z,93.05
2016-11-04T07:04:54.887Z,92.96
2016-11-04T07:06:05.419Z,93.34
2016-11-04T07:07:30.422Z,92.96
2016-11-04T07:08:41.294Z,93.34
2016-11-04T07:09:51.769Z,93.15
2016-11-04T07:11:02.218Z,93.73
2016-11-04T07:12:27.308Z,93.54
2016-11-04T07:13:37.815Z,94.11
2016-11-04T07:14:48.288Z,94.01
2016-11-04T07:17:38.349Z,94.11
2016-11-04T07:18:48.801Z,94.01
2016-11-04T07:19:59.255Z,94.11
2016-11-04T07:21:09.727Z,95.36
2016-11-04T07:22:20.196Z,94.11
2016-11-04T07:23:30.649Z,94.98
2016-11-04T07:24:41.101Z,95.45
2016-11-04T07:25:51.560Z,94.98
2016-11-04T07:27:02.208Z,95.07
2016-11-04T07:28:12.643Z,95.55
2016-11-04T07:29:23.283Z,94.98
2016-11-04T07:30:33.730Z,94.69
2016-11-04T07:31:44.182Z,95.07
2016-11-04T07:32:54.754Z,95.07
2016-11-04T07:34:05.224Z,94.31
2016-11-04T07:35:15.676Z,94.49
2016-11-04T07:36:26.148Z,94.11
2016-11-04T07:37:36.608Z,94.11
2016-11-04T07:38:47.280Z,93.92
2016-11-04T07:39:57.723Z,93.49
2016-11-04T07:41:22.719Z,94.26
2016-11-04T07:42:33.163Z,93.44
2016-11-04T07:43:43.605Z,93.73
2016-11-04T07:44:54.284Z,93.92
2016-11-04T07:46:19.270Z,94.21
2016-11-04T07:47:29.696Z,94.01
2016-11-04T07:48:40.076Z,93.92
2016-11-04T07:49:50.458Z,94.11
2016-11-04T07:51:00.819Z,94.59
2016-11-04T07:52:11.174Z,93.92
2016-11-04T07:53:21.512Z,94.31
2016-11-04T07:54:31.882Z,94.59
2016-11-04T07:55:42.241Z,94.31
2016-11-04T07:56:52.598Z,94.98
2016-11-04T07:58:02.981Z,95.07
2016-11-04T07:59:27.898Z,94.98
2016-11-04T08:00:38.272Z,95.07
2016-11-04T08:01:48.632Z,94.88
2016-11-04T08:02:59.012Z,95.07
2016-11-04T08:04:09.382Z,94.88
2016-11-04T08:05:19.848Z,94.4
2016-11-04T08:06:30.210Z,94.4
2016-11-04T08:07:40.545Z,94.69
2016-11-04T08:08:50.912Z,94.59
2016-11-04T08:10:02.124Z,94.59
2016-11-04T08:11:12.600Z,94.49
2016-11-04T08:12:22.971Z,93.82
2016-11-04T08:13:33.368Z,94.59
2016-11-04T08:14:43.831Z,94.49
2016-11-04T08:15:54.313Z,93.92
2016-11-04T08:17:04.899Z,93.73
2016-11-04T08:18:15.360Z,94.21
2016-11-04T08:19:25.838Z,94.11
2016-11-04T08:20:36.297Z,94.01
2016-11-04T08:21:46.768Z,93.92
2016-11-04T08:22:57.343Z,93.82
2016-11-04T08:24:07.846Z,94.21
2016-11-04T08:25:18.318Z,94.11
2016-11-04T08:26:43.326Z,94.11
2016-11-04T08:27:53.798Z,93.73
2016-11-04T08:29:04.309Z,94.31
2016-11-04T08:30:14.782Z,93.73
2016-11-04T08:31:25.250Z,93.92
2016-11-04T08:32:35.756Z,94.01
2016-11-04T08:33:46.412Z,94.01
2016-11-04T08:36:21.937Z,94.21
2016-11-04T08:37:32.401Z,94.01
2016-11-04T08:38:42.860Z,93.34
2016-11-04T08:39:53.330Z,93.34
2016-11-04T08:41:03.802Z,93.82
2016-11-04T08:42:14.280Z,93.92
2016-11-04T08:43:24.745Z,94.31
2016-11-04T08:44:35.222Z,93.82
2016-11-04T08:45:45.698Z,94.11
2016-11-04T08:46:56.178Z,94.21
2016-11-04T08:48:06.664Z,92.96
2016-11-04T08:49:17.148Z,93.25
2016-11-04T08:50:27.629Z,94.01
2016-11-04T08:51:52.829Z,93.92
2016-11-04T08:53:03.307Z,94.21
2016-11-04T08:54:13.783Z,94.11
2016-11-04T08:55:24.254Z,93.82
2016-11-04T08:56:49.378Z,94.21
2016-11-04T08:57:59.844Z,94.11
2016-11-04T08:59:10.323Z,94.01
2016-11-04T09:00:20.792Z,93.82
2016-11-04T09:01:31.268Z,93.92
2016-11-04T09:02:41.742Z,93.92
2016-11-04T09:03:52.208Z,93.92
2016-11-04T09:05:02.670Z,93.92
2016-11-04T09:06:13.136Z,93.25
2016-11-04T09:07:23.593Z,93.73
2016-11-04T09:08:34.058Z,94.11
2016-11-04T09:09:44.513Z,94.11
2016-11-04T09:10:55.700Z,94.21
2016-11-04T09:12:06.160Z,94.21
2016-11-04T09:13:16.605Z,94.21
2016-11-04T09:14:27.064Z,93.82
2016-11-04T09:15:37.511Z,93.92
2016-11-04T09:16:47.976Z,94.69
2016-11-04T09:17:58.505Z,95.26
2016-11-04T09:19:09.042Z,94.69
2016-11-04T09:20:34.103Z,94.4
2016-11-04T09:21:44.684Z,94.49
2016-11-04T09:22:55.265Z,94.4
2016-11-04T09:24:05.894Z,94.78
2016-11-04T09:26:42.555Z,93.92
2016-11-04T09:27:53.602Z,94.11
2016-11-04T09:29:04.346Z,93.96
2016-11-04T09:30:14.912Z,94.01
2016-11-04T09:31:25.470Z,93.68
2016-11-04T09:32:36.014Z,93.25
2016-11-04T09:33:46.760Z,93.05
2016-11-04T09:34:57.303Z,93.25
2016-11-04T09:36:07.851Z,93.44
2016-11-04T09:37:32.910Z,93.63
2016-11-04T09:38:43.448Z,93.34
2016-11-04T09:39:53.986Z,93.73
2016-11-04T09:41:04.536Z,93.73
2016-11-04T09:43:40.153Z,93.92
2016-11-04T09:44:50.707Z,93.73
2016-11-04T09:47:26.300Z,94.01
2016-11-04T09:48:51.396Z,93.73
2016-11-04T09:50:02.340Z,93.96
2016-11-04T09:51:12.904Z,94.16
2016-11-04T09:52:23.453Z,94.16
2016-11-04T09:55:13.657Z,93.96
2016-11-04T09:56:24.206Z,93.77
2016-11-04T09:57:34.759Z,93.96
2016-11-04T09:58:45.299Z,94.06
2016-11-04T09:59:56.043Z,94.35
2016-11-04T10:01:06.579Z,93.96
2016-11-04T10:02:17.111Z,93.96
2016-11-04T10:03:27.645Z,94.06
2016-11-04T10:04:52.708Z,94.54
2016-11-04T10:06:03.245Z,94.45
2016-11-04T10:07:13.789Z,94.64
2016-11-04T10:08:24.323Z,94.54
2016-11-04T10:09:34.868Z,94.45
2016-11-04T10:10:45.413Z,95.31
2016-11-04T10:11:55.999Z,95.03
2016-11-04T10:13:06.563Z,95.03
2016-11-04T10:14:17.603Z,95.12
2016-11-04T10:15:28.152Z,95.03
2016-11-04T10:16:38.805Z,94.93
2016-11-04T10:17:49.366Z,94.93
2016-11-04T10:18:59.936Z,95.21
2016-11-04T10:20:10.493Z,95.12
2016-11-04T10:21:21.056Z,94.83
2016-11-04T10:22:31.719Z,94.73
2016-11-04T10:23:42.265Z,95.12
2016-11-04T10:24:52.846Z,94.54
2016-11-04T10:26:03.432Z,95.21
2016-11-04T10:27:14.007Z,94.35
2016-11-04T10:28:24.745Z,94.54
2016-11-04T10:29:35.673Z,94.54
2016-11-04T10:30:46.119Z,94.83
2016-11-04T10:31:56.556Z,94.73
2016-11-04T10:33:06.980Z,94.16
2016-11-04T10:34:17.633Z,94.16
2016-11-04T10:35:28.099Z,94.26
2016-11-04T10:36:38.552Z,94.35
2016-11-04T10:37:48.982Z,94.54
2016-11-04T10:38:59.456Z,94.45
2016-11-04T10:40:24.647Z,94.93
2016-11-04T10:41:49.624Z,94.59
2016-11-04T10:43:00.075Z,94.73
2016-11-04T10:44:10.536Z,94.16
2016-11-04T10:45:21.213Z,94.3
2016-11-04T10:46:31.786Z,93.91
2016-11-04T10:47:42.217Z,93.82
2016-11-04T10:48:52.564Z,94.3
2016-11-04T10:50:02.912Z,94.49
2016-11-04T10:51:13.364Z,94.3
2016-11-04T10:52:23.743Z,94.49
2016-11-04T10:54:59.193Z,95.07
2016-11-04T10:56:09.580Z,95.7
2016-11-04T10:57:20.176Z,96.08
2016-11-04T10:58:30.525Z,96.27
2016-11-04T10:59:40.886Z,96.85
2016-11-04T11:00:51.468Z,97.62
2016-11-04T11:02:02.041Z,97.33
2016-11-04T11:03:12.415Z,97.47
2016-11-04T11:04:22.835Z,97.33
2016-11-04T11:05:33.228Z,97.47
2016-11-04T11:06:43.587Z,97.14
2016-11-04T11:07:53.949Z,97.96
2016-11-04T11:09:04.323Z,97.09
2016-11-04T11:10:43.837Z,97.76
2016-11-04T11:11:54.216Z,97.62
2016-11-04T11:13:05.198Z,97.57
2016-11-04T11:14:15.608Z,97.86
2016-11-04T11:15:25.968Z,97.91
2016-11-04T11:16:36.336Z,97.86
2016-11-04T11:18:01.260Z,98.24
2016-11-04T11:19:12.098Z,98.29
2016-11-04T11:20:22.461Z,97.86
2016-11-04T11:21:32.845Z,98.86
2016-11-04T11:22:43.211Z,98.34
2016-11-04T11:24:08.164Z,98.24
2016-11-04T11:25:18.851Z,98.72
2016-11-04T11:26:29.237Z,99.2
2016-11-04T11:27:39.592Z,99.2
2016-11-04T11:28:50.165Z,98.91
2016-11-04T11:30:00.558Z,98.82
2016-11-04T11:31:10.937Z,99.99
2016-11-04T11:32:21.294Z,99.87
2016-11-04T11:33:46.241Z,99.87
2016-11-04T11:36:21.583Z,99.99
2016-11-04T11:37:32.102Z,99.99
2016-11-04T11:38:42.608Z,99.2
2016-11-04T11:39:53.353Z,99.4
2016-11-04T11:41:03.851Z,99.1
2016-11-04T11:42:14.340Z,99.68
2016-11-04T11:43:24.831Z,99.99
2016-11-04T11:44:35.525Z,99.99
2016-11-04T11:45:46.015Z,99.99
2016-11-04T11:46:56.560Z,99.3
2016-11-04T11:48:07.058Z,99.2
2016-11-04T11:49:17.545Z,98.86
2016-11-04T11:50:28.064Z,99.2
2016-11-04T11:51:38.576Z,99.97
2016-11-04T11:52:49.077Z,99.3
2016-11-04T11:53:59.568Z,99.97
2016-11-04T11:55:10.069Z,99.99
2016-11-04T11:56:20.597Z,99.99
2016-11-04T11:57:31.103Z,99.99
2016-11-04T11:58:41.791Z,99.99
2016-11-04T11:59:52.309Z,99.99
2016-11-04T12:01:02.826Z,99.99
2016-11-04T12:02:13.326Z,99.97
2016-11-04T12:03:23.839Z,99.87
2016-11-04T12:04:34.424Z,99.99
2016-11-04T12:05:59.456Z,99.58
2016-11-04T12:07:24.703Z,99.87
2016-11-04T12:08:35.219Z,99.78
2016-11-04T12:09:45.718Z,99.99
2016-11-04T12:11:10.784Z,99.68
2016-11-04T12:12:21.290Z,99.99
2016-11-04T12:13:31.813Z,99.99
2016-11-04T12:14:42.864Z,98.82
2016-11-04T12:17:18.433Z,99.99
2016-11-04T12:18:29.142Z,99.78
2016-11-04T12:19:39.660Z,99.87
2016-11-04T12:20:50.172Z,99.78
2016-11-04T12:22:00.692Z,99.99
2016-11-04T12:23:26.230Z,99.68
2016-11-04T12:24:36.765Z,99.78
2016-11-04T12:25:47.334Z,99.97
2016-11-04T12:26:57.899Z,99.99
2016-11-04T12:28:08.461Z,99.99
2016-11-04T12:29:18.977Z,99.99
2016-11-04T12:30:44.049Z,99.1
2016-11-04T12:31:55.077Z,99.97
2016-11-04T12:33:05.794Z,99.49
2016-11-04T12:34:16.836Z,99.25
2016-11-04T12:35:27.559Z,97.91
2016-11-04T12:36:38.084Z,98.34
2016-11-04T12:38:03.135Z,98.39
2016-11-04T12:39:14.154Z,98.86
2016-11-04T12:40:24.720Z,98.68
2016-11-04T12:41:49.807Z,99.35
2016-11-04T12:43:00.326Z,98.77
2016-11-04T12:44:25.577Z,98.48
2016-11-04T12:45:36.100Z,98.19
2016-11-04T12:46:46.624Z,98.24
2016-11-04T12:47:57.185Z,99.01
2016-11-04T12:49:07.712Z,98.82
2016-11-04T12:50:32.760Z,98.48
2016-11-04T12:51:57.811Z,98.39
2016-11-04T12:53:08.341Z,98.68
2016-11-04T12:54:19.054Z,98.48
2016-11-04T12:55:30.682Z,97.71
2016-11-04T12:56:41.219Z,98.19
2016-11-04T12:57:51.785Z,98.1
2016-11-04T13:00:27.394Z,97.24
2016-11-04T13:01:37.918Z,97.71
2016-11-04T13:02:48.479Z,98.19
2016-11-04T13:03:59.109Z,98.48
2016-11-04T13:05:10.115Z,97.91
2016-11-04T13:06:20.933Z,98.44
2016-11-04T13:07:31.589Z,97.86
2016-11-04T13:08:42.206Z,97.47
2016-11-04T13:09:52.824Z,97.38
2016-11-04T13:11:17.946Z,97.86
2016-11-04T13:12:28.758Z,98.34
2016-11-04T13:13:39.425Z,98.82
2016-11-04T13:14:50.043Z,98.24
2016-11-04T13:16:00.661Z,98.05
2016-11-04T13:17:11.245Z,97.96
2016-11-04T13:18:21.745Z,97.96
2016-11-04T13:19:32.249Z,97.76
2016-11-04T13:20:43.210Z,97.09
2016-11-04T13:22:08.291Z,97.38
2016-11-04T13:23:19.479Z,96.61
2016-11-04T13:24:29.993Z,97.57
2016-11-04T13:25:55.414Z,96.9
2016-11-04T13:27:05.915Z,97.19
2016-11-04T13:28:16.410Z,97.38
2016-11-04T13:29:26.915Z,97.67
2016-11-04T13:30:37.620Z,97.38
2016-11-04T13:31:48.624Z,96.7
2016-11-04T13:33:13.688Z,96.32
2016-11-04T13:34:24.188Z,97.19
2016-11-04T13:35:34.706Z,96.61
2016-11-04T13:39:36.023Z,97.14
2016-11-04T13:40:46.917Z,96.17
2016-11-04T13:41:57.417Z,95.7
2016-11-04T13:43:07.917Z,95.79
2016-11-04T13:44:18.422Z,96.08
2016-11-04T13:45:28.917Z,95.79
2016-11-04T13:46:39.503Z,95.98
2016-11-04T13:47:50.007Z,96.08
2016-11-04T13:49:00.523Z,95.7
2016-11-04T13:50:11.059Z,95.65
2016-11-04T13:51:22.001Z,93.43
2016-11-04T13:52:32.629Z,93.38
2016-11-04T13:53:43.754Z,93.82
2016-11-04T13:54:54.374Z,93.96
2016-11-04T13:56:05.606Z,94.06
2016-11-04T13:57:16.224Z,93
2016-11-04T13:58:26.840Z,93.68
2016-11-04T13:59:51.969Z,93.19
2016-11-04T14:01:03.738Z,94.15
2016-11-04T14:02:14.366Z,94.35
2016-11-04T14:04:50.111Z,93.62
2016-11-04T14:06:00.726Z,93.43
2016-11-04T14:07:11.745Z,93.43
2016-11-04T14:08:22.770Z,93.05
2016-11-04T14:09:33.800Z,92.66
2016-11-04T14:10:44.922Z,93.72
2016-11-04T14:11:55.531Z,93.62
2016-11-04T14:13:06.146Z,94.49
2016-11-04T14:14:16.813Z,92.28
2016-11-04T14:15:27.428Z,92.28
2016-11-04T14:16:38.039Z,92.28
2016-11-04T14:17:48.909Z,93.05
2016-11-04T14:18:59.524Z,92.66
2016-11-04T14:21:35.294Z,92.38
2016-11-04T14:22:45.910Z,91.6
2016-11-04T14:23:56.941Z,91.7
2016-11-04T14:25:07.959Z,91.51
2016-11-04T14:26:19.312Z,92.04
2016-11-04T14:27:30.113Z,92.23
2016-11-04T14:28:40.729Z,92.08
2016-11-04T14:29:51.342Z,92.08
2016-11-04T14:31:01.996Z,92.61
2016-11-04T14:32:12.778Z,92.43
2016-11-04T14:33:23.508Z,92.04
2016-11-04T14:34:34.037Z,91.8
2016-11-04T14:35:44.565Z,92.28
2016-11-04T14:36:55.278Z,92.08
2016-11-04T14:38:05.808Z,91.7
2016-11-04T14:39:16.341Z,92.04
2016-11-04T14:40:27.259Z,92.23
2016-11-04T14:41:37.780Z,93
2016-11-04T14:42:48.312Z,92.61
2016-11-04T14:43:58.835Z,92.13
2016-11-04T14:45:09.361Z,91.27
2016-11-04T14:46:20.085Z,91.66
2016-11-04T14:47:31.047Z,90.5
2016-11-04T14:48:41.600Z,90.41
2016-11-04T14:49:52.316Z,90.26
2016-11-04T14:51:02.842Z,91.17
2016-11-04T14:52:13.606Z,90.69
2016-11-04T14:53:24.129Z,90.79
2016-11-04T14:54:34.660Z,90.31
2016-11-04T14:55:45.619Z,91.27
2016-11-04T14:56:56.183Z,91.27
2016-11-04T14:58:06.708Z,91.8
2016-11-04T14:59:17.233Z,91.13
2016-11-04T15:00:27.756Z,90.64
2016-11-04T15:01:38.989Z,90.06
2016-11-04T15:02:49.518Z,90.16
2016-11-04T15:04:00.231Z,89.01
2016-11-04T15:05:10.946Z,89.39
2016-11-04T15:06:37.200Z,89.01
2016-11-04T15:07:47.725Z,88.62
2016-11-04T15:08:58.250Z,89.49
2016-11-04T15:10:08.783Z,89.29
2016-11-04T15:11:19.349Z,89.68
2016-11-04T15:12:44.407Z,89.29
2016-11-04T15:13:54.933Z,89.1
2016-11-04T15:15:05.715Z,89.01
2016-11-04T15:17:42.120Z,89.29
2016-11-04T15:18:52.935Z,89.29
2016-11-04T15:20:03.794Z,88.33
2016-11-04T15:21:14.441Z,87.56
2016-11-04T15:22:25.056Z,87.56
2016-11-04T15:23:35.672Z,88.24
2016-11-04T15:24:46.285Z,87.56
2016-11-04T15:25:57.132Z,87.46
2016-11-04T15:27:07.750Z,87.03
2016-11-04T15:28:18.560Z,87.22
2016-11-04T15:29:29.385Z,86.45
2016-11-04T15:30:40.192Z,86.21
2016-11-04T15:31:50.811Z,84.76
2016-11-04T15:33:01.469Z,84.42
2016-11-04T15:34:12.109Z,83.16
2016-11-04T15:35:22.925Z,83.26
2016-11-04T15:36:33.541Z,83.07
2016-11-04T15:37:44.159Z,83.84
2016-11-04T15:38:54.776Z,82.97
2016-11-04T15:40:05.390Z,82.87
2016-11-04T15:41:16.088Z,82.87
2016-11-04T15:42:26.702Z,82.87
2016-11-04T15:43:37.861Z,82.59
2016-11-04T15:44:48.682Z,82.49
2016-11-04T15:45:59.494Z,82.68
2016-11-04T15:47:10.110Z,82.01
2016-11-04T15:48:20.728Z,81.81
2016-11-04T15:49:31.547Z,81.72
2016-11-04T15:50:42.163Z,82.1
2016-11-04T15:51:53.186Z,81.43
2016-11-04T15:53:03.803Z,82.01
2016-11-04T15:54:14.454Z,82.97